sensor_id;sensor_type;location;lat;lon;timestamp;P1;durP1;ratioP1;P2;durP2;ratioP2
20842;SDS011;26719;51.440;-2.574;2023-06-10T00:00:36;0.00;;;0.00;;
20842;SDS011;26719;51.440;-2.574;2023-06-10T00:03:02;0.00;;;0.00;;
20842;SDS011;26719;51.440;-2.574;2023-06-10T00:05:28;0.00;;;0.00;;
20842;SDS011;26719;51.440;-2.574;2023-06-10T00:07:57;0.00;;;0.00;;
20842;SDS011;26719;51.440;-2.574;2023-06-10T00:10:24;0.00;;;0.00;;
20842;SDS011;26719;51.440;-2.574;2023-06-10T00:12:51;0.00;;;0.00;;
20842;SDS011;26719;51.440;-2.574;2023-06-10T00:15:17;0.00;;;0.00;;
20842;SDS011;26719;51.440;-2.574;2023-06-10T00:17:43;0.00;;;0.00;;
20842;SDS011;26719;51.440;-2.574;2023-06-10T00:20:09;0.00;;;0.00;;
20842;SDS011;26719;51.440;-2.574;2023-06-10T00:22:37;0.00;;;0.00;;
20842;SDS011;26719;51.440;-2.574;2023-06-10T00:25:07;0.00;;;0.00;;
20842;SDS011;26719;51.440;-2.574;2023-06-10T00:27:34;0.00;;;0.00;;
20842;SDS011;26719;51.440;-2.574;2023-06-10T00:30:01;0.00;;;0.00;;
20842;SDS011;26719;51.440;-2.574;2023-06-10T00:32:29;0.00;;;0.00;;
20842;SDS011;26719;51.440;-2.574;2023-06-10T00:34:57;0.00;;;0.00;;
20842;SDS011;26719;51.440;-2.574;2023-06-10T00:37:23;0.00;;;0.00;;
20842;SDS011;26719;51.440;-2.574;2023-06-10T00:39:49;0.00;;;0.00;;
20842;SDS011;26719;51.440;-2.574;2023-06-10T00:42:15;0.00;;;0.00;;
20842;SDS011;26719;51.440;-2.574;2023-06-10T00:44:41;0.00;;;0.00;;
20842;SDS011;26719;51.440;-2.574;2023-06-10T00:47:07;0.00;;;0.00;;
20842;SDS011;26719;51.440;-2.574;2023-06-10T00:49:33;0.00;;;0.00;;
20842;SDS011;26719;51.440;-2.574;2023-06-10T00:52:00;0.00;;;0.00;;
20842;SDS011;26719;51.440;-2.574;2023-06-10T00:54:27;0.00;;;0.00;;
20842;SDS011;26719;51.440;-2.574;2023-06-10T00:56:53;0.00;;;0.00;;
20842;SDS011;26719;51.440;-2.574;2023-06-10T00:59:19;0.00;;;0.00;;
20842;SDS011;26719;51.440;-2.574;2023-06-10T01:01:45;0.00;;;0.00;;
20842;SDS011;26719;51.440;-2.574;2023-06-10T01:04:12;0.00;;;0.00;;
20842;SDS011;26719;51.440;-2.574;2023-06-10T01:06:44;0.00;;;0.00;;
20842;SDS011;26719;51.440;-2.574;2023-06-10T01:09:59;0.00;;;0.00;;
20842;SDS011;26719;51.440;-2.574;2023-06-10T01:12:12;0.00;;;0.00;;
20842;SDS011;26719;51.440;-2.574;2023-06-10T01:14:42;0.00;;;0.00;;
20842;SDS011;26719;51.440;-2.574;2023-06-10T01:17:10;0.00;;;0.00;;
20842;SDS011;26719;51.440;-2.574;2023-06-10T01:19:36;0.00;;;0.00;;
20842;SDS011;26719;51.440;-2.574;2023-06-10T01:22:03;0.00;;;0.00;;
20842;SDS011;26719;51.440;-2.574;2023-06-10T01:24:30;0.00;;;0.00;;
20842;SDS011;26719;51.440;-2.574;2023-06-10T01:27:00;0.00;;;0.00;;
20842;SDS011;26719;51.440;-2.574;2023-06-10T01:29:36;0.00;;;0.00;;
20842;SDS011;26719;51.440;-2.574;2023-06-10T01:32:15;0.00;;;0.00;;
20842;SDS011;26719;51.440;-2.574;2023-06-10T01:34:42;0.00;;;0.00;;
20842;SDS011;26719;51.440;-2.574;2023-06-10T01:37:08;0.00;;;0.00;;
20842;SDS011;26719;51.440;-2.574;2023-06-10T01:39:35;0.00;;;0.00;;
20842;SDS011;26719;51.440;-2.574;2023-06-10T01:42:02;0.00;;;0.00;;
20842;SDS011;26719;51.440;-2.574;2023-06-10T01:44:28;0.00;;;0.00;;
20842;SDS011;26719;51.440;-2.574;2023-06-10T01:46:54;0.00;;;0.00;;
20842;SDS011;26719;51.440;-2.574;2023-06-10T01:49:20;0.00;;;0.00;;
20842;SDS011;26719;51.440;-2.574;2023-06-10T01:51:49;0.00;;;0.00;;
20842;SDS011;26719;51.440;-2.574;2023-06-10T01:54:15;0.00;;;0.00;;
20842;SDS011;26719;51.440;-2.574;2023-06-10T01:56:41;0.00;;;0.00;;
20842;SDS011;26719;51.440;-2.574;2023-06-10T01:59:07;0.00;;;0.00;;
20842;SDS011;26719;51.440;-2.574;2023-06-10T02:01:33;0.00;;;0.00;;
20842;SDS011;26719;51.440;-2.574;2023-06-10T02:03:59;0.00;;;0.00;;
20842;SDS011;26719;51.440;-2.574;2023-06-10T02:06:25;0.00;;;0.00;;
20842;SDS011;26719;51.440;-2.574;2023-06-10T02:08:51;0.00;;;0.00;;
20842;SDS011;26719;51.440;-2.574;2023-06-10T02:11:17;0.00;;;0.00;;
20842;SDS011;26719;51.440;-2.574;2023-06-10T02:13:43;0.00;;;0.00;;
20842;SDS011;26719;51.440;-2.574;2023-06-10T02:16:09;0.00;;;0.00;;
20842;SDS011;26719;51.440;-2.574;2023-06-10T02:18:37;0.00;;;0.00;;
20842;SDS011;26719;51.440;-2.574;2023-06-10T02:21:05;0.00;;;0.00;;
20842;SDS011;26719;51.440;-2.574;2023-06-10T02:23:32;0.00;;;0.00;;
20842;SDS011;26719;51.440;-2.574;2023-06-10T02:25:58;0.00;;;0.00;;
20842;SDS011;26719;51.440;-2.574;2023-06-10T02:28:24;0.00;;;0.00;;
20842;SDS011;26719;51.440;-2.574;2023-06-10T02:30:51;0.00;;;0.00;;
20842;SDS011;26719;51.440;-2.574;2023-06-10T02:33:17;0.00;;;0.00;;
20842;SDS011;26719;51.440;-2.574;2023-06-10T02:35:44;0.00;;;0.00;;
20842;SDS011;26719;51.440;-2.574;2023-06-10T02:38:11;0.00;;;0.00;;
20842;SDS011;26719;51.440;-2.574;2023-06-10T02:40:37;0.00;;;0.00;;
20842;SDS011;26719;51.440;-2.574;2023-06-10T02:43:03;0.00;;;0.00;;
20842;SDS011;26719;51.440;-2.574;2023-06-10T02:45:29;0.00;;;0.00;;
20842;SDS011;26719;51.440;-2.574;2023-06-10T02:47:55;0.00;;;0.00;;
20842;SDS011;26719;51.440;-2.574;2023-06-10T02:50:21;0.00;;;0.00;;
20842;SDS011;26719;51.440;-2.574;2023-06-10T02:52:47;0.00;;;0.00;;
20842;SDS011;26719;51.440;-2.574;2023-06-10T02:55:14;0.00;;;0.00;;
20842;SDS011;26719;51.440;-2.574;2023-06-10T02:57:40;0.00;;;0.00;;
20842;SDS011;26719;51.440;-2.574;2023-06-10T03:00:06;0.00;;;0.00;;
20842;SDS011;26719;51.440;-2.574;2023-06-10T03:02:35;0.00;;;0.00;;
20842;SDS011;26719;51.440;-2.574;2023-06-10T03:05:02;0.00;;;0.00;;
20842;SDS011;26719;51.440;-2.574;2023-06-10T03:07:28;0.00;;;0.00;;
20842;SDS011;26719;51.440;-2.574;2023-06-10T03:09:56;0.00;;;0.00;;
20842;SDS011;26719;51.440;-2.574;2023-06-10T03:12:22;0.00;;;0.00;;
20842;SDS011;26719;51.440;-2.574;2023-06-10T03:14:48;0.00;;;0.00;;
20842;SDS011;26719;51.440;-2.574;2023-06-10T03:17:14;0.00;;;0.00;;
20842;SDS011;26719;51.440;-2.574;2023-06-10T03:19:40;0.00;;;0.00;;
20842;SDS011;26719;51.440;-2.574;2023-06-10T03:22:07;0.00;;;0.00;;
20842;SDS011;26719;51.440;-2.574;2023-06-10T03:24:33;0.00;;;0.00;;
20842;SDS011;26719;51.440;-2.574;2023-06-10T03:27:00;0.00;;;0.00;;
20842;SDS011;26719;51.440;-2.574;2023-06-10T03:29:27;0.00;;;0.00;;
20842;SDS011;26719;51.440;-2.574;2023-06-10T03:31:53;0.00;;;0.00;;
20842;SDS011;26719;51.440;-2.574;2023-06-10T03:34:19;0.00;;;0.00;;
20842;SDS011;26719;51.440;-2.574;2023-06-10T03:36:45;0.00;;;0.00;;
20842;SDS011;26719;51.440;-2.574;2023-06-10T03:39:11;0.00;;;0.00;;
20842;SDS011;26719;51.440;-2.574;2023-06-10T03:41:37;0.00;;;0.00;;
20842;SDS011;26719;51.440;-2.574;2023-06-10T03:44:03;0.00;;;0.00;;
20842;SDS011;26719;51.440;-2.574;2023-06-10T03:46:29;0.00;;;0.00;;
20842;SDS011;26719;51.440;-2.574;2023-06-10T03:48:55;0.00;;;0.00;;
20842;SDS011;26719;51.440;-2.574;2023-06-10T03:51:22;0.00;;;0.00;;
20842;SDS011;26719;51.440;-2.574;2023-06-10T03:53:48;0.00;;;0.00;;
20842;SDS011;26719;51.440;-2.574;2023-06-10T03:56:14;0.00;;;0.00;;
20842;SDS011;26719;51.440;-2.574;2023-06-10T03:58:40;0.00;;;0.00;;
20842;SDS011;26719;51.440;-2.574;2023-06-10T04:01:06;0.00;;;0.00;;
20842;SDS011;26719;51.440;-2.574;2023-06-10T04:03:32;0.00;;;0.00;;
20842;SDS011;26719;51.440;-2.574;2023-06-10T04:05:58;0.00;;;0.00;;
20842;SDS011;26719;51.440;-2.574;2023-06-10T04:08:25;0.00;;;0.00;;
20842;SDS011;26719;51.440;-2.574;2023-06-10T04:10:51;0.00;;;0.00;;
20842;SDS011;26719;51.440;-2.574;2023-06-10T04:13:17;0.00;;;0.00;;
20842;SDS011;26719;51.440;-2.574;2023-06-10T04:15:44;0.00;;;0.00;;
20842;SDS011;26719;51.440;-2.574;2023-06-10T04:18:10;0.00;;;0.00;;
20842;SDS011;26719;51.440;-2.574;2023-06-10T04:20:36;0.00;;;0.00;;
20842;SDS011;26719;51.440;-2.574;2023-06-10T04:23:02;0.00;;;0.00;;
20842;SDS011;26719;51.440;-2.574;2023-06-10T04:25:29;0.00;;;0.00;;
20842;SDS011;26719;51.440;-2.574;2023-06-10T04:27:55;0.00;;;0.00;;
20842;SDS011;26719;51.440;-2.574;2023-06-10T04:30:21;0.00;;;0.00;;
20842;SDS011;26719;51.440;-2.574;2023-06-10T04:32:47;0.00;;;0.00;;
20842;SDS011;26719;51.440;-2.574;2023-06-10T04:35:14;0.00;;;0.00;;
20842;SDS011;26719;51.440;-2.574;2023-06-10T04:37:41;0.00;;;0.00;;
20842;SDS011;26719;51.440;-2.574;2023-06-10T04:40:07;0.00;;;0.00;;
20842;SDS011;26719;51.440;-2.574;2023-06-10T04:42:34;0.00;;;0.00;;
20842;SDS011;26719;51.440;-2.574;2023-06-10T04:45:00;0.00;;;0.00;;
20842;SDS011;26719;51.440;-2.574;2023-06-10T04:47:27;0.00;;;0.00;;
20842;SDS011;26719;51.440;-2.574;2023-06-10T04:49:53;0.00;;;0.00;;
20842;SDS011;26719;51.440;-2.574;2023-06-10T04:52:19;0.00;;;0.00;;
20842;SDS011;26719;51.440;-2.574;2023-06-10T04:54:46;0.00;;;0.00;;
20842;SDS011;26719;51.440;-2.574;2023-06-10T04:57:13;0.00;;;0.00;;
20842;SDS011;26719;51.440;-2.574;2023-06-10T04:59:39;0.00;;;0.00;;
20842;SDS011;26719;51.440;-2.574;2023-06-10T05:02:05;0.00;;;0.00;;
20842;SDS011;26719;51.440;-2.574;2023-06-10T05:04:31;0.00;;;0.00;;
20842;SDS011;26719;51.440;-2.574;2023-06-10T05:06:57;0.00;;;0.00;;
20842;SDS011;26719;51.440;-2.574;2023-06-10T05:09:23;0.00;;;0.00;;
20842;SDS011;26719;51.440;-2.574;2023-06-10T05:11:50;0.00;;;0.00;;
20842;SDS011;26719;51.440;-2.574;2023-06-10T05:14:18;0.00;;;0.00;;
20842;SDS011;26719;51.440;-2.574;2023-06-10T05:16:46;0.00;;;0.00;;
20842;SDS011;26719;51.440;-2.574;2023-06-10T05:19:12;0.00;;;0.00;;
20842;SDS011;26719;51.440;-2.574;2023-06-10T05:21:38;0.00;;;0.00;;
20842;SDS011;26719;51.440;-2.574;2023-06-10T05:24:04;0.00;;;0.00;;
20842;SDS011;26719;51.440;-2.574;2023-06-10T05:26:30;0.00;;;0.00;;
20842;SDS011;26719;51.440;-2.574;2023-06-10T05:29:02;0.00;;;0.00;;
20842;SDS011;26719;51.440;-2.574;2023-06-10T05:31:29;0.00;;;0.00;;
20842;SDS011;26719;51.440;-2.574;2023-06-10T05:33:55;0.00;;;0.00;;
20842;SDS011;26719;51.440;-2.574;2023-06-10T05:36:21;0.00;;;0.00;;
20842;SDS011;26719;51.440;-2.574;2023-06-10T05:38:47;0.00;;;0.00;;
20842;SDS011;26719;51.440;-2.574;2023-06-10T05:41:13;0.00;;;0.00;;
20842;SDS011;26719;51.440;-2.574;2023-06-10T05:43:39;0.00;;;0.00;;
20842;SDS011;26719;51.440;-2.574;2023-06-10T05:46:05;0.00;;;0.00;;
20842;SDS011;26719;51.440;-2.574;2023-06-10T05:48:31;0.00;;;0.00;;
20842;SDS011;26719;51.440;-2.574;2023-06-10T05:50:57;0.00;;;0.00;;
20842;SDS011;26719;51.440;-2.574;2023-06-10T05:53:23;0.00;;;0.00;;
20842;SDS011;26719;51.440;-2.574;2023-06-10T05:55:49;0.00;;;0.00;;
20842;SDS011;26719;51.440;-2.574;2023-06-10T05:58:16;0.00;;;0.00;;
20842;SDS011;26719;51.440;-2.574;2023-06-10T06:00:42;0.00;;;0.00;;
20842;SDS011;26719;51.440;-2.574;2023-06-10T06:03:08;0.00;;;0.00;;
20842;SDS011;26719;51.440;-2.574;2023-06-10T06:05:35;0.00;;;0.00;;
20842;SDS011;26719;51.440;-2.574;2023-06-10T06:08:03;0.00;;;0.00;;
20842;SDS011;26719;51.440;-2.574;2023-06-10T06:10:29;0.00;;;0.00;;
20842;SDS011;26719;51.440;-2.574;2023-06-10T06:12:55;0.00;;;0.00;;
20842;SDS011;26719;51.440;-2.574;2023-06-10T06:15:21;0.00;;;0.00;;
20842;SDS011;26719;51.440;-2.574;2023-06-10T06:17:47;0.00;;;0.00;;
20842;SDS011;26719;51.440;-2.574;2023-06-10T06:20:13;0.00;;;0.00;;
20842;SDS011;26719;51.440;-2.574;2023-06-10T06:22:39;0.00;;;0.00;;
20842;SDS011;26719;51.440;-2.574;2023-06-10T06:25:05;0.00;;;0.00;;
20842;SDS011;26719;51.440;-2.574;2023-06-10T06:27:31;0.00;;;0.00;;
20842;SDS011;26719;51.440;-2.574;2023-06-10T06:29:57;0.00;;;0.00;;
20842;SDS011;26719;51.440;-2.574;2023-06-10T06:32:24;0.00;;;0.00;;
20842;SDS011;26719;51.440;-2.574;2023-06-10T06:34:52;0.00;;;0.00;;
20842;SDS011;26719;51.440;-2.574;2023-06-10T06:37:22;0.00;;;0.00;;
20842;SDS011;26719;51.440;-2.574;2023-06-10T06:39:50;0.00;;;0.00;;
20842;SDS011;26719;51.440;-2.574;2023-06-10T06:42:16;0.00;;;0.00;;
20842;SDS011;26719;51.440;-2.574;2023-06-10T06:44:42;0.00;;;0.00;;
20842;SDS011;26719;51.440;-2.574;2023-06-10T06:47:09;0.00;;;0.00;;
20842;SDS011;26719;51.440;-2.574;2023-06-10T06:49:37;0.00;;;0.00;;
20842;SDS011;26719;51.440;-2.574;2023-06-10T06:52:04;0.00;;;0.00;;
20842;SDS011;26719;51.440;-2.574;2023-06-10T06:54:30;0.00;;;0.00;;
20842;SDS011;26719;51.440;-2.574;2023-06-10T06:56:56;0.00;;;0.00;;
20842;SDS011;26719;51.440;-2.574;2023-06-10T06:59:22;0.00;;;0.00;;
20842;SDS011;26719;51.440;-2.574;2023-06-10T07:01:50;0.00;;;0.00;;
20842;SDS011;26719;51.440;-2.574;2023-06-10T07:04:19;0.00;;;0.00;;
20842;SDS011;26719;51.440;-2.574;2023-06-10T07:06:46;0.00;;;0.00;;
20842;SDS011;26719;51.440;-2.574;2023-06-10T07:09:12;0.00;;;0.00;;
20842;SDS011;26719;51.440;-2.574;2023-06-10T07:11:39;0.00;;;0.00;;
20842;SDS011;26719;51.440;-2.574;2023-06-10T07:14:06;0.00;;;0.00;;
20842;SDS011;26719;51.440;-2.574;2023-06-10T07:16:32;0.00;;;0.00;;
20842;SDS011;26719;51.440;-2.574;2023-06-10T07:18:58;0.00;;;0.00;;
20842;SDS011;26719;51.440;-2.574;2023-06-10T07:21:24;0.00;;;0.00;;
20842;SDS011;26719;51.440;-2.574;2023-06-10T07:23:50;0.00;;;0.00;;
20842;SDS011;26719;51.440;-2.574;2023-06-10T07:26:21;0.00;;;0.00;;
20842;SDS011;26719;51.440;-2.574;2023-06-10T07:28:47;0.00;;;0.00;;
20842;SDS011;26719;51.440;-2.574;2023-06-10T07:31:13;0.00;;;0.00;;
20842;SDS011;26719;51.440;-2.574;2023-06-10T07:33:40;0.00;;;0.00;;
20842;SDS011;26719;51.440;-2.574;2023-06-10T07:36:06;0.00;;;0.00;;
20842;SDS011;26719;51.440;-2.574;2023-06-10T07:38:32;0.00;;;0.00;;
20842;SDS011;26719;51.440;-2.574;2023-06-10T07:40:59;0.00;;;0.00;;
20842;SDS011;26719;51.440;-2.574;2023-06-10T07:43:25;0.00;;;0.00;;
20842;SDS011;26719;51.440;-2.574;2023-06-10T07:45:51;0.00;;;0.00;;
20842;SDS011;26719;51.440;-2.574;2023-06-10T07:48:17;0.00;;;0.00;;
20842;SDS011;26719;51.440;-2.574;2023-06-10T07:50:43;0.00;;;0.00;;
20842;SDS011;26719;51.440;-2.574;2023-06-10T07:53:09;0.00;;;0.00;;
20842;SDS011;26719;51.440;-2.574;2023-06-10T07:55:35;0.00;;;0.00;;
20842;SDS011;26719;51.440;-2.574;2023-06-10T07:58:01;0.00;;;0.00;;
20842;SDS011;26719;51.440;-2.574;2023-06-10T08:00:27;0.00;;;0.00;;
20842;SDS011;26719;51.440;-2.574;2023-06-10T08:02:53;0.00;;;0.00;;
20842;SDS011;26719;51.440;-2.574;2023-06-10T08:05:20;0.00;;;0.00;;
20842;SDS011;26719;51.440;-2.574;2023-06-10T08:07:46;0.00;;;0.00;;
20842;SDS011;26719;51.440;-2.574;2023-06-10T08:10:12;0.00;;;0.00;;
20842;SDS011;26719;51.440;-2.574;2023-06-10T08:12:39;0.00;;;0.00;;
20842;SDS011;26719;51.440;-2.574;2023-06-10T08:15:05;0.00;;;0.00;;
20842;SDS011;26719;51.440;-2.574;2023-06-10T08:17:31;0.00;;;0.00;;
20842;SDS011;26719;51.440;-2.574;2023-06-10T08:19:57;0.00;;;0.00;;
20842;SDS011;26719;51.440;-2.574;2023-06-10T08:22:23;0.00;;;0.00;;
20842;SDS011;26719;51.440;-2.574;2023-06-10T08:24:49;0.00;;;0.00;;
20842;SDS011;26719;51.440;-2.574;2023-06-10T08:27:15;0.00;;;0.00;;
20842;SDS011;26719;51.440;-2.574;2023-06-10T08:29:41;0.00;;;0.00;;
20842;SDS011;26719;51.440;-2.574;2023-06-10T08:32:07;0.00;;;0.00;;
20842;SDS011;26719;51.440;-2.574;2023-06-10T08:34:33;0.00;;;0.00;;
20842;SDS011;26719;51.440;-2.574;2023-06-10T08:37:03;0.00;;;0.00;;
20842;SDS011;26719;51.440;-2.574;2023-06-10T08:39:29;0.00;;;0.00;;
20842;SDS011;26719;51.440;-2.574;2023-06-10T08:42:00;0.00;;;0.00;;
20842;SDS011;26719;51.440;-2.574;2023-06-10T08:44:27;0.00;;;0.00;;
20842;SDS011;26719;51.440;-2.574;2023-06-10T08:46:55;0.00;;;0.00;;
20842;SDS011;26719;51.440;-2.574;2023-06-10T08:49:21;0.00;;;0.00;;
20842;SDS011;26719;51.440;-2.574;2023-06-10T08:51:51;0.00;;;0.00;;
20842;SDS011;26719;51.440;-2.574;2023-06-10T08:54:21;0.00;;;0.00;;
20842;SDS011;26719;51.440;-2.574;2023-06-10T08:56:50;0.00;;;0.00;;
20842;SDS011;26719;51.440;-2.574;2023-06-10T08:59:17;0.07;;;0.07;;
20842;SDS011;26719;51.440;-2.574;2023-06-10T09:01:44;0.00;;;0.00;;
20842;SDS011;26719;51.440;-2.574;2023-06-10T09:04:10;0.00;;;0.00;;
20842;SDS011;26719;51.440;-2.574;2023-06-10T09:06:36;0.00;;;0.00;;
20842;SDS011;26719;51.440;-2.574;2023-06-10T09:09:03;0.00;;;0.00;;
20842;SDS011;26719;51.440;-2.574;2023-06-10T09:11:30;0.00;;;0.00;;
20842;SDS011;26719;51.440;-2.574;2023-06-10T09:13:57;0.00;;;0.00;;
20842;SDS011;26719;51.440;-2.574;2023-06-10T09:16:23;0.00;;;0.00;;
20842;SDS011;26719;51.440;-2.574;2023-06-10T09:18:50;0.00;;;0.00;;
20842;SDS011;26719;51.440;-2.574;2023-06-10T09:21:21;0.00;;;0.00;;
20842;SDS011;26719;51.440;-2.574;2023-06-10T09:23:47;0.00;;;0.00;;
20842;SDS011;26719;51.440;-2.574;2023-06-10T09:26:14;0.00;;;0.00;;
20842;SDS011;26719;51.440;-2.574;2023-06-10T09:29:22;0.00;;;0.00;;
20842;SDS011;26719;51.440;-2.574;2023-06-10T09:31:37;0.00;;;0.00;;
20842;SDS011;26719;51.440;-2.574;2023-06-10T09:34:09;0.00;;;0.00;;
20842;SDS011;26719;51.440;-2.574;2023-06-10T09:36:36;0.10;;;0.10;;
20842;SDS011;26719;51.440;-2.574;2023-06-10T09:39:03;0.00;;;0.00;;
20842;SDS011;26719;51.440;-2.574;2023-06-10T09:41:33;0.10;;;0.10;;
20842;SDS011;26719;51.440;-2.574;2023-06-10T09:44:00;0.00;;;0.00;;
20842;SDS011;26719;51.440;-2.574;2023-06-10T09:46:30;0.03;;;0.03;;
20842;SDS011;26719;51.440;-2.574;2023-06-10T09:48:57;0.10;;;0.10;;
20842;SDS011;26719;51.440;-2.574;2023-06-10T09:51:23;0.00;;;0.00;;
20842;SDS011;26719;51.440;-2.574;2023-06-10T09:53:52;0.10;;;0.10;;
20842;SDS011;26719;51.440;-2.574;2023-06-10T09:56:18;0.10;;;0.10;;
20842;SDS011;26719;51.440;-2.574;2023-06-10T09:58:45;0.10;;;0.10;;
20842;SDS011;26719;51.440;-2.574;2023-06-10T10:01:12;0.10;;;0.10;;
20842;SDS011;26719;51.440;-2.574;2023-06-10T10:06:11;0.17;;;0.17;;
20842;SDS011;26719;51.440;-2.574;2023-06-10T10:08:37;0.10;;;0.10;;
20842;SDS011;26719;51.440;-2.574;2023-06-10T10:11:03;0.10;;;0.10;;
20842;SDS011;26719;51.440;-2.574;2023-06-10T10:13:29;0.10;;;0.10;;
20842;SDS011;26719;51.440;-2.574;2023-06-10T10:15:57;0.10;;;0.10;;
20842;SDS011;26719;51.440;-2.574;2023-06-10T10:18:25;0.10;;;0.10;;
20842;SDS011;26719;51.440;-2.574;2023-06-10T10:20:55;0.10;;;0.10;;
20842;SDS011;26719;51.440;-2.574;2023-06-10T10:23:24;0.10;;;0.10;;
20842;SDS011;26719;51.440;-2.574;2023-06-10T10:25:51;0.10;;;0.10;;
20842;SDS011;26719;51.440;-2.574;2023-06-10T10:28:18;0.10;;;0.10;;
20842;SDS011;26719;51.440;-2.574;2023-06-10T10:30:47;0.20;;;0.20;;
20842;SDS011;26719;51.440;-2.574;2023-06-10T10:33:29;0.20;;;0.20;;
20842;SDS011;26719;51.440;-2.574;2023-06-10T10:35:56;0.10;;;0.10;;
20842;SDS011;26719;51.440;-2.574;2023-06-10T10:38:23;0.10;;;0.10;;
20842;SDS011;26719;51.440;-2.574;2023-06-10T10:40:49;0.10;;;0.10;;
20842;SDS011;26719;51.440;-2.574;2023-06-10T10:43:16;0.10;;;0.10;;
20842;SDS011;26719;51.440;-2.574;2023-06-10T10:45:42;0.10;;;0.10;;
20842;SDS011;26719;51.440;-2.574;2023-06-10T10:48:10;0.20;;;0.20;;
20842;SDS011;26719;51.440;-2.574;2023-06-10T10:50:37;0.10;;;0.10;;
20842;SDS011;26719;51.440;-2.574;2023-06-10T10:53:04;0.20;;;0.20;;
20842;SDS011;26719;51.440;-2.574;2023-06-10T10:55:30;0.10;;;0.10;;
20842;SDS011;26719;51.440;-2.574;2023-06-10T10:57:57;0.20;;;0.20;;
20842;SDS011;26719;51.440;-2.574;2023-06-10T11:00:27;0.20;;;0.20;;
20842;SDS011;26719;51.440;-2.574;2023-06-10T11:02:54;0.20;;;0.20;;
20842;SDS011;26719;51.440;-2.574;2023-06-10T11:05:31;0.20;;;0.20;;
20842;SDS011;26719;51.440;-2.574;2023-06-10T11:07:58;0.20;;;0.20;;
20842;SDS011;26719;51.440;-2.574;2023-06-10T11:10:34;0.20;;;0.20;;
20842;SDS011;26719;51.440;-2.574;2023-06-10T11:13:02;0.15;;;0.15;;
20842;SDS011;26719;51.440;-2.574;2023-06-10T11:15:31;0.20;;;0.20;;
20842;SDS011;26719;51.440;-2.574;2023-06-10T11:23:12;0.20;;;0.20;;
20842;SDS011;26719;51.440;-2.574;2023-06-10T11:25:50;0.20;;;0.20;;
20842;SDS011;26719;51.440;-2.574;2023-06-10T11:28:19;0.20;;;0.20;;
20842;SDS011;26719;51.440;-2.574;2023-06-10T11:30:45;0.20;;;0.20;;
20842;SDS011;26719;51.440;-2.574;2023-06-10T11:33:16;0.20;;;0.20;;
20842;SDS011;26719;51.440;-2.574;2023-06-10T11:35:42;0.20;;;0.20;;
20842;SDS011;26719;51.440;-2.574;2023-06-10T11:38:08;0.20;;;0.20;;
20842;SDS011;26719;51.440;-2.574;2023-06-10T11:40:36;0.20;;;0.20;;
20842;SDS011;26719;51.440;-2.574;2023-06-10T11:43:03;0.20;;;0.20;;
20842;SDS011;26719;51.440;-2.574;2023-06-10T11:45:30;0.20;;;0.20;;
20842;SDS011;26719;51.440;-2.574;2023-06-10T11:47:57;0.20;;;0.20;;
20842;SDS011;26719;51.440;-2.574;2023-06-10T11:50:32;0.10;;;0.10;;
20842;SDS011;26719;51.440;-2.574;2023-06-10T11:52:59;0.22;;;0.22;;
20842;SDS011;26719;51.440;-2.574;2023-06-10T11:58:12;0.20;;;0.20;;
20842;SDS011;26719;51.440;-2.574;2023-06-10T12:00:44;0.20;;;0.20;;
20842;SDS011;26719;51.440;-2.574;2023-06-10T12:03:11;0.30;;;0.30;;
20842;SDS011;26719;51.440;-2.574;2023-06-10T12:05:37;0.20;;;0.20;;
20842;SDS011;26719;51.440;-2.574;2023-06-10T12:08:09;0.20;;;0.20;;
20842;SDS011;26719;51.440;-2.574;2023-06-10T12:10:39;0.13;;;0.13;;
20842;SDS011;26719;51.440;-2.574;2023-06-10T12:13:05;0.10;;;0.10;;
20842;SDS011;26719;51.440;-2.574;2023-06-10T12:15:32;0.10;;;0.10;;
20842;SDS011;26719;51.440;-2.574;2023-06-10T12:17:58;0.20;;;0.20;;
20842;SDS011;26719;51.440;-2.574;2023-06-10T12:20:25;0.20;;;0.20;;
20842;SDS011;26719;51.440;-2.574;2023-06-10T12:22:52;0.20;;;0.20;;
20842;SDS011;26719;51.440;-2.574;2023-06-10T12:25:23;0.17;;;0.17;;
20842;SDS011;26719;51.440;-2.574;2023-06-10T12:27:51;0.22;;;0.22;;
20842;SDS011;26719;51.440;-2.574;2023-06-10T12:30:21;0.22;;;0.22;;
20842;SDS011;26719;51.440;-2.574;2023-06-10T12:32:47;0.30;;;0.30;;
20842;SDS011;26719;51.440;-2.574;2023-06-10T12:35:16;0.30;;;0.30;;
20842;SDS011;26719;51.440;-2.574;2023-06-10T12:37:43;0.28;;;0.28;;
20842;SDS011;26719;51.440;-2.574;2023-06-10T12:40:25;0.30;;;0.30;;
20842;SDS011;26719;51.440;-2.574;2023-06-10T12:42:52;0.40;;;0.40;;
20842;SDS011;26719;51.440;-2.574;2023-06-10T12:45:26;0.30;;;0.30;;
20842;SDS011;26719;51.440;-2.574;2023-06-10T12:48:03;0.30;;;0.30;;
20842;SDS011;26719;51.440;-2.574;2023-06-10T12:50:30;0.30;;;0.30;;
20842;SDS011;26719;51.440;-2.574;2023-06-10T12:52:56;0.20;;;0.20;;
20842;SDS011;26719;51.440;-2.574;2023-06-10T12:55:22;0.40;;;0.40;;
20842;SDS011;26719;51.440;-2.574;2023-06-10T12:57:49;0.40;;;0.40;;
20842;SDS011;26719;51.440;-2.574;2023-06-10T13:00:16;0.30;;;0.30;;
20842;SDS011;26719;51.440;-2.574;2023-06-10T13:02:42;0.30;;;0.30;;
20842;SDS011;26719;51.440;-2.574;2023-06-10T13:05:08;0.40;;;0.40;;
20842;SDS011;26719;51.440;-2.574;2023-06-10T13:07:34;0.30;;;0.30;;
20842;SDS011;26719;51.440;-2.574;2023-06-10T13:10:00;0.30;;;0.30;;
20842;SDS011;26719;51.440;-2.574;2023-06-10T13:14:56;0.25;;;0.25;;
20842;SDS011;26719;51.440;-2.574;2023-06-10T13:17:22;0.40;;;0.40;;
20842;SDS011;26719;51.440;-2.574;2023-06-10T13:19:49;0.40;;;0.40;;
20842;SDS011;26719;51.440;-2.574;2023-06-10T13:22:15;0.30;;;0.30;;
20842;SDS011;26719;51.440;-2.574;2023-06-10T13:24:41;0.30;;;0.30;;
20842;SDS011;26719;51.440;-2.574;2023-06-10T13:27:08;0.40;;;0.40;;
20842;SDS011;26719;51.440;-2.574;2023-06-10T13:29:34;0.30;;;0.30;;
20842;SDS011;26719;51.440;-2.574;2023-06-10T13:32:00;0.30;;;0.30;;
20842;SDS011;26719;51.440;-2.574;2023-06-10T13:34:26;0.30;;;0.30;;
20842;SDS011;26719;51.440;-2.574;2023-06-10T13:36:53;0.40;;;0.40;;
20842;SDS011;26719;51.440;-2.574;2023-06-10T13:39:19;0.30;;;0.30;;
20842;SDS011;26719;51.440;-2.574;2023-06-10T13:41:45;0.37;;;0.37;;
20842;SDS011;26719;51.440;-2.574;2023-06-10T13:44:11;0.30;;;0.30;;
20842;SDS011;26719;51.440;-2.574;2023-06-10T13:46:37;0.30;;;0.30;;
20842;SDS011;26719;51.440;-2.574;2023-06-10T13:49:03;0.30;;;0.30;;
20842;SDS011;26719;51.440;-2.574;2023-06-10T13:51:29;0.30;;;0.30;;
20842;SDS011;26719;51.440;-2.574;2023-06-10T13:53:56;0.30;;;0.30;;
20842;SDS011;26719;51.440;-2.574;2023-06-10T13:56:22;0.30;;;0.30;;
20842;SDS011;26719;51.440;-2.574;2023-06-10T13:58:48;0.40;;;0.40;;
20842;SDS011;26719;51.440;-2.574;2023-06-10T14:01:14;0.30;;;0.30;;
20842;SDS011;26719;51.440;-2.574;2023-06-10T14:03:40;0.30;;;0.30;;
20842;SDS011;26719;51.440;-2.574;2023-06-10T14:06:06;0.37;;;0.37;;
20842;SDS011;26719;51.440;-2.574;2023-06-10T14:08:33;0.27;;;0.27;;
20842;SDS011;26719;51.440;-2.574;2023-06-10T14:10:59;0.30;;;0.30;;
20842;SDS011;26719;51.440;-2.574;2023-06-10T14:13:25;0.30;;;0.30;;
20842;SDS011;26719;51.440;-2.574;2023-06-10T14:15:51;0.30;;;0.30;;
20842;SDS011;26719;51.440;-2.574;2023-06-10T14:18:17;0.30;;;0.30;;
20842;SDS011;26719;51.440;-2.574;2023-06-10T14:20:43;0.23;;;0.23;;
20842;SDS011;26719;51.440;-2.574;2023-06-10T14:23:09;0.30;;;0.30;;
20842;SDS011;26719;51.440;-2.574;2023-06-10T14:25:35;0.30;;;0.30;;
20842;SDS011;26719;51.440;-2.574;2023-06-10T14:28:02;0.30;;;0.30;;
20842;SDS011;26719;51.440;-2.574;2023-06-10T14:30:28;0.20;;;0.20;;
20842;SDS011;26719;51.440;-2.574;2023-06-10T14:32:54;0.30;;;0.30;;
20842;SDS011;26719;51.440;-2.574;2023-06-10T14:35:20;0.20;;;0.20;;
20842;SDS011;26719;51.440;-2.574;2023-06-10T14:37:46;0.30;;;0.30;;
20842;SDS011;26719;51.440;-2.574;2023-06-10T14:40:12;0.30;;;0.30;;
20842;SDS011;26719;51.440;-2.574;2023-06-10T14:42:38;0.30;;;0.30;;
20842;SDS011;26719;51.440;-2.574;2023-06-10T14:45:04;0.30;;;0.30;;